• Join FlightAware (Why Join?)
  • Login
  • US Flag 
02:51PM EDT


 

Airport Tracker/Info


-or-


 

Live Flight TrackerFlight Track Log ✈ C-GONN ✈ 19-Jun-2013 ✈ CYUL - CYSJ

Flight Track Log - Related Links

Times and Time Zones

All times are in EDT time to prevent confusion due to time zone crossing. See the C-GONN flight status page for this flight to view local times or setup timezone preferences in your user account.

Time Position Orientation Groundspeed Altitude Reporting Facility
EDT Latitude Longitude Course Direction KTS MPH feet Rate Location/Type
08:27AM 45.4500 -73.7167 90° East 90 104 100  Level Montreal Center
08:28AM 45.4500 -73.6833 90° East 120 138 1,800 1,320 Climbing Montreal Center
08:29AM 45.4333 -73.6500 125° Southeast 140 161 2,800 1,020 Climbing Montreal Center
08:30AM 45.4167 -73.5833 110° East 150 173 3,900 960 Climbing Montreal Center
08:31AM 45.4167 -73.5333 90° East 170 196 4,800 1,020 Climbing Montreal Center
08:32AM 45.4167 -73.4667 90° East 170 196 6,000 1,020 Climbing Montreal Center
08:33AM 45.4167 -73.3833 90° East 170 196 6,900 900 Climbing Montreal Center
08:34AM 45.4167 -73.3167 90° East 180 207 7,900 1,020 Climbing Montreal Center
08:35AM 45.4000 -73.2500 110° East 180 207 9,000 960 Climbing Montreal Center
08:36AM 45.4000 -73.1833 90° East 180 207 9,900 900 Climbing Montreal Center
08:37AM 45.4000 -73.1000 90° East 190 219 10,800 840 Climbing Montreal Center
08:38AM 45.4000 -73.0333 90° East 190 219 11,600 900 Climbing Montreal Center
08:39AM 45.4167 -72.9333 77° East 200 230 12,600 900 Climbing Montreal Center
08:40AM 45.4167 -72.8667 90° East 200 230 13,500 900 Climbing Montreal Center
08:41AM 45.4167 -72.7667 90° East 210 242 14,400 840 Climbing Montreal Center
08:42AM 45.4167 -72.7000 90° East 220 253 15,200 720 Climbing Montreal Center
08:43AM 45.4167 -72.6000 90° East 220 253 15,900 780 Climbing Montreal Center
08:44AM 45.4167 -72.5000 90° East 220 253 16,800 840 Climbing Montreal Center
08:45AM 45.4167 -72.4333 90° East 230 265 17,600 660 Climbing Montreal Center
08:46AM 45.4167 -72.3333 90° East 230 265 18,200 600 Climbing Montreal Center
08:47AM 45.4333 -72.2500 74° East 220 253 18,800 600 Climbing Montreal Center
08:48AM 45.4167 -72.1500 103° East 230 265 19,500 600 Climbing Montreal Center
08:49AM 45.4167 -72.0500 90° East 230 265 20,000 600 Climbing Montreal Center
08:50AM 45.4167 -71.9500 90° East 240 276 20,700 600 Climbing Montreal Center
08:51AM 45.4333 -71.8667 74° East 240 276 21,200 480 Climbing Montreal Center
08:52AM 45.4333 -71.7667 90° East 240 276 21,700 540 Climbing Montreal Center
08:53AM 45.4167 -71.6667 103° East 250 288 22,300 480 Climbing Montreal Center
08:54AM 45.4333 -71.5667 77° East 250 288 22,700 420 Climbing Montreal Center
08:55AM 45.4333 -71.4833 90° East 250 288 23,200 420 Climbing Montreal Center
08:56AM 45.4333 -71.3833 90° East 260 299 23,600 420 Climbing Montreal Center
08:57AM 45.4333 -71.2667 90° East 260 299 24,100 360 Climbing Montreal Center
08:58AM 45.4333 -71.1667 90° East 260 299 24,400 360 Climbing Montreal Center
08:59AM 45.4431 -71.0972 79° East 254 292 24,800 300 Climbing Boston Center
09:00AM 45.4439 -70.9906 89° East 254 292 25,000 60 Climbing Boston Center
09:01AM 45.4422 -70.8783 91° East 264 304 25,000  Level Boston Center
09:02AM 45.4428 -70.7600 90° East 282 325 25,000  Level Boston Center
09:03AM 45.4431 -70.6417 90° East 289 333 25,000  Level Boston Center
09:04AM 45.4433 -70.5203 90° East 294 338 25,000  Level Boston Center
09:05AM 45.4433 -70.3992 90° East 300 345 25,000  Level Boston Center
09:06AM 45.4436 -70.2986 90° East 305 351 25,000  Level Boston Center
09:07AM 45.4431 -70.1683 90° East 305 351 25,000  Level Boston Center
09:08AM 45.4428 -70.0469 90° East 305 351 25,000  Level Boston Center
09:09AM 45.4422 -69.9228 90° East 305 351 25,000  Level Boston Center
09:10AM 45.4417 -69.8017 90° East 305 351 25,000  Level Boston Center
09:11AM 45.4386 -69.6744 92° East 305 351 25,000  Level Boston Center
09:12AM 45.4400 -69.5531 89° East 305 351 25,000  Level Boston Center
09:13AM 45.4369 -69.4319 92° East 305 351 25,000  Level Boston Center
09:14AM 45.4356 -69.3078 91° East 305 351 25,000  Level Boston Center
09:15AM 45.4364 -69.1864 89° East 305 351 25,000  Level Boston Center
09:16AM 45.4347 -69.0533 91° East 310 357 25,000  Level Boston Center
09:17AM 45.4311 -68.9294 92° East 310 357 25,000  Level Boston Center
09:18AM 45.4314 -68.8081 90° East 310 357 25,000  Level Boston Center
09:19AM 45.4275 -68.6839 93° East 310 357 25,000  Level Boston Center
09:20AM 45.4264 -68.5864 91° East 310 357 25,000  Level Boston Center
09:21AM 45.4256 -68.4417 90° East 310 357 25,000  Level Boston Center
09:22AM 45.4214 -68.3206 93° East 310 357 25,000  Level Boston Center
09:23AM 45.4192 -68.1964 91° East 305 351 25,000  Level Boston Center
09:24AM 45.4167 -68.0725 92° East 305 351 25,000 -480 Level Boston Center
09:25AM 45.4139 -67.9483 92° East 310 357 24,100 -1,260 Descending Boston Center
09:26AM 45.4103 -67.8067 92° East 332 382 22,500 -1,560 Descending Boston Center
09:27AM 45.4089 -67.6678 91° East 345 397 21,000 -1,500 Descending Boston Center
09:28AM 45.4031 -67.5261 93° East 350 403 19,500 -1,500 Descending Boston Center
09:29AM 45.3833 -67.3667 100° East 350 403 17,900 -1,500 Descending Moncton Center
09:30AM 45.3667 -67.2333 100° East 340 391 16,400 -1,500 Descending Moncton Center
09:31AM 45.3667 -67.1167 90° East 330 380 14,900 -1,560 Descending Moncton Center
09:32AM 45.3833 -66.9667 81° East 330 380 13,300 -1,500 Descending Moncton Center
09:33AM 45.3667 -66.8500 101° East 320 368 11,900 -1,380 Descending Moncton Center
09:34AM 45.3333 -66.7333 112° Southeast 310 357 10,600 -1,260 Descending Moncton Center
09:35AM 45.3000 -66.6333 115° Southeast 300 345 9,400 -1,200 Descending Moncton Center
09:36AM 45.2667 -66.5167 112° Southeast 290 334 8,200 -1,020 Descending Moncton Center
09:37AM 45.2500 -66.4167 103° East 270 311 7,400 -900 Descending Moncton Center
09:38AM 45.2167 -66.3167 115° Southeast 260 299 6,500 -1,080 Descending Moncton Center
09:39AM 45.2333 -66.2333 74° East 260 299 5,300 -1,200 Descending Moncton Center
09:40AM 45.2333 -66.1333 90° East 260 299 4,200 -1,200 Descending Moncton Center
09:41AM 45.2333 -66.0167 90° East 250 288 3,000 -840 Descending Moncton Center
09:42AM 45.2333 -65.9667 90° East 190 219 2,600 -420 Descending Moncton Center